Time;durP1;ratioP1;P1;durP2;ratioP2;P2;SDS_P1;SDS_P2;PMS_P1;PMS_P2;Temp;Humidity;BMP_temperature;BMP_pressure;BME280_temperature;BME280_humidity;BME280_pressure;Samples;Min_cycle;Max_cycle;Signal;HPM_P1;HPM_P2
2022/05/20 00:02:04;;;;;;;2.80;2.60;;;;;;;19.81;nan;95555.00;4756767;30;20199;-75
2022/05/20 00:04:30;;;;;;;2.80;2.60;;;;;;;19.70;nan;95556.56;4763649;30;20187;-74
2022/05/20 00:06:55;;;;;;;2.87;2.60;;;;;;;19.30;nan;95559.84;4751267;30;20208;-75
2022/05/20 00:09:21;;;;;;;2.30;2.10;;;;;;;19.49;nan;95555.25;4747736;30;20187;-74
2022/05/20 00:11:46;;;;;;;5.33;2.40;;;;;;;19.16;nan;95559.22;4759514;30;20246;-74
2022/05/20 00:14:12;;;;;;;3.47;2.10;;;;;;;19.37;nan;95555.25;4753684;30;20208;-74
2022/05/20 00:16:37;;;;;;;3.20;2.40;;;;;;;19.22;nan;95553.00;4776080;30;20209;-75
2022/05/20 00:19:05;;;;;;;3.10;2.57;;;;;;;19.30;nan;95555.31;4747639;30;20210;-74
2022/05/20 00:21:31;;;;;;;3.67;2.70;;;;;;;19.19;nan;95563.25;4758012;30;20209;-74
2022/05/20 00:23:57;;;;;;;4.83;2.27;;;;;;;19.44;nan;95555.13;4767371;30;20578;-75
2022/05/20 00:26:23;;;;;;;2.50;2.20;;;;;;;19.33;nan;95561.22;4750486;30;20929;-75
2022/05/20 00:28:48;;;;;;;2.80;2.60;;;;;;;19.31;nan;95562.25;4766964;30;20421;-75
2022/05/20 00:31:15;;;;;;;3.73;2.27;;;;;;;19.21;nan;95569.94;4748830;30;20632;-75
2022/05/20 00:33:41;;;;;;;2.90;2.40;;;;;;;19.27;nan;95570.88;4766237;30;20198;-75
2022/05/20 00:36:07;;;;;;;3.70;2.90;;;;;;;19.28;nan;95572.53;4743985;30;20549;-74
2022/05/20 00:38:32;;;;;;;4.90;2.33;;;;;;;19.27;nan;95577.03;4751977;30;20195;-75
2022/05/20 00:40:59;;;;;;;2.90;2.60;;;;;;;19.22;nan;95579.53;4766492;30;20471;-75
2022/05/20 00:43:24;;;;;;;1.90;1.80;;;;;;;19.13;nan;95585.38;4749900;30;20214;-75
2022/05/20 00:45:51;;;;;;;3.13;2.93;;;;;;;19.22;nan;95584.84;4766631;30;20429;-75
2022/05/20 00:48:17;;;;;;;2.37;2.17;;;;;;;19.30;nan;95587.19;4754257;30;20200;-75
2022/05/20 00:50:50;;;;;;;3.40;3.13;;;;;;;19.39;nan;95578.88;4751136;30;20500;-75
2022/05/20 00:53:19;;;;;;;3.27;2.97;;;;;;;19.39;nan;95585.03;4748629;30;20434;-75
2022/05/20 00:55:46;;;;;;;3.50;2.93;;;;;;;19.30;nan;95581.88;4757175;30;20473;-75
2022/05/20 00:58:18;;;;;;;4.00;3.20;;;;;;;18.99;nan;95576.78;4750605;30;20521;-76
2022/05/20 01:00:49;;;;;;;4.53;2.53;;;;;;;19.14;nan;95581.69;4751664;30;20461;-75
2022/05/20 01:03:18;;;;;;;5.17;3.63;;;;;;;18.97;nan;95577.03;4766116;30;20417;-75
2022/05/20 01:05:49;;;;;;;3.90;3.60;;;;;;;18.98;nan;95567.22;4765763;30;20537;-75
2022/05/20 01:08:25;;;;;;;5.67;3.10;;;;;;;19.27;nan;95571.72;4765978;30;20425;-74
2022/05/20 01:10:52;;;;;;;5.40;2.80;;;;;;;19.26;nan;95578.06;4766189;30;20452;-75
2022/05/20 01:13:19;;;;;;;4.10;2.57;;;;;;;19.19;nan;95573.88;4762030;30;20819;-75
2022/05/20 01:15:44;;;;;;;3.90;2.70;;;;;;;19.16;nan;95572.47;4746691;30;20866;-75
2022/05/20 01:18:12;;;;;;;2.10;2.00;;;;;;;19.18;nan;95562.44;4742986;30;20525;-75
2022/05/20 01:20:42;;;;;;;2.87;2.60;;;;;;;19.02;nan;95563.06;4748225;30;20464;-75
2022/05/20 01:23:14;;;;;;;2.70;2.57;;;;;;;18.99;nan;95564.34;4759568;30;20444;-73
2022/05/20 01:25:43;;;;;;;3.07;2.80;;;;;;;19.50;nan;95559.53;4757491;30;20453;-74
2022/05/20 01:28:08;;;;;;;5.30;3.50;;;;;;;18.91;nan;95562.81;4748375;30;20427;-75
2022/05/20 01:30:34;;;;;;;2.87;2.50;;;;;;;18.96;nan;95559.47;4734933;30;20472;-75
2022/05/20 01:33:07;;;;;;;2.70;2.50;;;;;;;19.07;nan;95566.66;4761233;30;20227;-75
2022/05/20 01:35:42;;;;;;;3.87;2.63;;;;;;;19.23;nan;95565.22;4756761;30;20550;-75
2022/05/20 01:38:09;;;;;;;5.13;2.80;;;;;;;19.13;nan;95564.97;4765720;30;20428;-75
2022/05/20 01:40:48;;;;;;;4.87;2.97;;;;;;;18.86;nan;95562.66;4761544;30;20444;-74
2022/05/20 01:43:34;;;;;;;4.43;2.70;;;;;;;18.59;nan;95569.28;4762278;30;20510;-75
2022/05/20 01:46:16;;;;;;;6.97;3.90;;;;;;;18.56;nan;95565.22;4748076;30;20517;-76
2022/05/20 01:49:10;;;;;;;3.70;3.07;;;;;;;17.83;nan;95571.19;4752252;30;20464;-74
2022/05/20 01:51:46;;;;;;;4.57;2.90;;;;;;;18.39;nan;95569.50;4765209;30;21001;-74
2022/05/20 01:54:23;;;;;;;5.00;3.73;;;;;;;18.69;nan;95564.28;4739982;30;20466;-75
2022/05/20 01:56:54;;;;;;;4.20;3.30;;;;;;;18.69;nan;95564.28;4765448;30;20457;-75
2022/05/20 01:59:28;;;;;;;7.40;4.33;;;;;;;18.54;nan;95565.44;4765353;30;20433;-75
2022/05/20 02:02:13;;;;;;;4.87;3.60;;;;;;;18.71;nan;95568.31;4748849;30;20458;-74
2022/05/20 02:04:51;;;;;;;3.03;2.40;;;;;;;18.02;nan;95572.91;4732724;30;20942;-74
2022/05/20 02:07:25;;;;;;;4.53;2.80;;;;;;;18.03;nan;95571.88;4747142;30;20446;-75
2022/05/20 02:10:05;;;;;;;3.60;3.23;;;;;;;18.32;nan;95570.34;4754995;30;20438;-75
2022/05/20 02:12:37;;;;;;;2.67;2.47;;;;;;;18.37;nan;95574.22;4763542;30;20535;-75
2022/05/20 02:15:02;;;;;;;3.33;2.60;;;;;;;18.48;nan;95570.84;4764807;30;20515;-75
2022/05/20 02:17:36;;;;;;;6.67;2.93;;;;;;;18.42;nan;95575.19;4765020;30;20516;-74
2022/05/20 02:20:09;;;;;;;3.07;2.87;;;;;;;18.49;nan;95578.53;4764168;30;20262;-75
2022/05/20 02:22:43;;;;;;;4.37;3.20;;;;;;;18.58;nan;95568.47;4747197;30;20437;-75
2022/05/20 02:25:13;;;;;;;6.60;3.13;;;;;;;18.65;nan;95569.22;4747782;30;20541;-75
2022/05/20 02:27:44;;;;;;;16.10;4.40;;;;;;;18.60;nan;95573.56;4752032;30;20990;-75
2022/05/20 02:30:16;;;;;;;4.77;3.90;;;;;;;18.46;nan;95584.31;4748432;30;20461;-74
2022/05/20 02:32:46;;;;;;;6.57;3.50;;;;;;;18.62;nan;95584.75;4759815;30;20468;-75
2022/05/20 02:35:11;;;;;;;4.40;4.00;;;;;;;18.17;nan;95591.09;4761758;30;20496;-74
2022/05/20 02:37:38;;;;;;;2.80;2.60;;;;;;;17.90;nan;95588.69;4745590;30;20446;-75
2022/05/20 02:40:06;;;;;;;4.90;3.57;;;;;;;18.16;nan;95586.03;4755724;30;20199;-76
2022/05/20 02:42:32;;;;;;;2.80;2.50;;;;;;;17.80;nan;95585.69;4763961;30;20830;-75
2022/05/20 02:44:59;;;;;;;3.93;2.50;;;;;;;17.83;nan;95585.28;4763484;30;20445;-75
2022/05/20 02:47:32;;;;;;;4.13;2.70;;;;;;;17.96;nan;95581.72;4746845;30;20195;-75
2022/05/20 02:49:58;;;;;;;2.40;1.97;;;;;;;17.91;nan;95578.94;4760518;30;20437;-75
2022/05/20 02:52:24;;;;;;;4.47;2.83;;;;;;;17.88;nan;95579.34;4764635;30;20416;-75
2022/05/20 02:54:49;;;;;;;2.93;2.60;;;;;;;17.95;nan;95572.97;4763454;30;20473;-75
2022/05/20 02:57:16;;;;;;;4.97;2.90;;;;;;;17.86;nan;95568.97;4764286;30;20287;-75
2022/05/20 03:05:10;;;;;;;3.07;2.87;;;;;;;17.96;nan;95563.16;4764234;30;20479;-75
2022/05/20 03:07:35;;;;;;;3.70;3.07;;;;;;;17.95;nan;95567.66;4763370;30;20445;-75
2022/05/20 03:10:01;;;;;;;3.37;2.40;;;;;;;17.81;nan;95575.91;4764104;30;20211;-75
2022/05/20 03:12:27;;;;;;;3.50;2.50;;;;;;;17.91;nan;95570.97;4759665;30;20259;-75
2022/05/20 03:14:53;;;;;;;4.03;3.63;;;;;;;17.86;nan;95576.09;4757418;30;20496;-75
2022/05/20 03:17:19;;;;;;;11.47;5.43;;;;;;;17.94;nan;95573.97;4750800;30;20275;-76
2022/05/20 03:19:44;;;;;;;7.73;3.53;;;;;;;17.91;nan;95568.34;4746399;30;20541;-74
2022/05/20 03:22:09;;;;;;;6.20;3.77;;;;;;;17.87;nan;95567.94;4743837;30;20288;-75
2022/05/20 03:24:35;;;;;;;4.80;4.40;;;;;;;17.96;nan;95571.13;4749790;30;20644;-75
2022/05/20 03:27:01;;;;;;;8.33;4.33;;;;;;;17.78;nan;95569.22;4746483;30;20235;-75
2022/05/20 03:29:27;;;;;;;4.37;3.97;;;;;;;16.23;nan;95575.44;4753187;30;20521;-75
2022/05/20 03:31:52;;;;;;;5.73;4.40;;;;;;;15.79;nan;95583.00;4746529;30;20191;-75
2022/05/20 03:34:19;;;;;;;4.20;3.90;;;;;;;16.07;nan;95579.34;4749261;30;20204;-75
2022/05/20 03:36:48;;;;;;;4.47;3.33;;;;;;;14.64;nan;95588.22;4746379;30;20212;-75
2022/05/20 03:39:16;;;;;;;7.03;4.47;;;;;;;15.83;nan;95587.91;4755718;30;20425;-74
2022/05/20 03:41:42;;;;;;;8.43;4.00;;;;;;;16.83;nan;95592.97;4763402;30;20473;-75
2022/05/20 03:44:09;;;;;;;7.37;4.33;;;;;;;15.88;nan;95596.81;4746120;30;20481;-75
2022/05/20 03:46:44;;;;;;;3.93;3.40;;;;;;;16.09;nan;95597.63;4742679;30;20454;-75
2022/05/20 03:49:10;;;;;;;6.60;4.00;;;;;;;15.94;nan;95606.56;4745885;30;20791;-75
2022/05/20 03:51:36;;;;;;;4.30;3.90;;;;;;;16.16;nan;95611.63;4755847;30;20493;-75
2022/05/20 03:54:02;;;;;;;4.13;3.77;;;;;;;16.87;nan;95612.72;4767820;30;20425;-74
2022/05/20 03:56:27;;;;;;;5.47;4.47;;;;;;;16.67;nan;95615.38;4750040;30;20262;-74
2022/05/20 03:58:53;;;;;;;7.13;6.03;;;;;;;17.10;nan;95625.44;4753027;30;20430;-75
2022/05/20 04:04:03;;;;;;;3.90;3.57;;;;;;;17.63;nan;95622.47;4760835;30;20253;-75
2022/05/20 04:06:28;;;;;;;4.90;4.00;;;;;;;17.39;nan;95623.25;4751901;30;20438;-74
2022/05/20 04:08:54;;;;;;;5.33;4.10;;;;;;;17.63;nan;95627.78;4755407;30;20195;-75
2022/05/20 04:11:20;;;;;;;5.80;3.80;;;;;;;17.85;nan;95627.44;4769586;30;20218;-75
2022/05/20 04:13:46;;;;;;;5.20;4.17;;;;;;;17.79;nan;95622.97;4746139;30;20438;-75
2022/05/20 04:16:14;;;;;;;5.00;3.87;;;;;;;17.97;nan;95620.44;4751205;30;20223;-75
2022/05/20 04:18:41;;;;;;;4.47;4.07;;;;;;;18.24;nan;95617.56;4768886;30;20425;-75
2022/05/20 04:21:08;;;;;;;4.27;3.97;;;;;;;18.44;nan;95620.00;4760964;30;20454;-75
2022/05/20 04:23:34;;;;;;;4.10;3.50;;;;;;;18.54;nan;95609.72;4751578;30;20507;-75
2022/05/20 04:26:01;;;;;;;6.20;5.10;;;;;;;18.61;nan;95615.75;4757040;30;20453;-75
2022/05/20 04:28:26;;;;;;;5.20;4.80;;;;;;;18.66;nan;95615.09;4769124;30;20203;-75
2022/05/20 04:30:56;;;;;;;6.97;6.13;;;;;;;18.57;nan;95613.75;4754682;30;20559;-74
2022/05/20 04:33:22;;;;;;;6.73;5.43;;;;;;;18.81;nan;95612.09;4752516;30;20184;-75
2022/05/20 04:35:48;;;;;;;6.97;4.93;;;;;;;19.06;nan;95609.34;4766556;30;20578;-75
2022/05/20 04:38:13;;;;;;;11.33;5.67;;;;;;;19.16;nan;95612.28;4765044;30;20446;-75
2022/05/20 04:40:39;;;;;;;5.37;4.80;;;;;;;19.35;nan;95620.19;4766413;30;20454;-75
2022/05/20 04:48:33;;;;;;;7.20;4.30;;;;;;;18.68;nan;95626.28;4765132;30;20440;-75
2022/05/20 04:50:58;;;;;;;6.70;5.40;;;;;;;18.06;nan;95636.84;4777400;30;21051;-75
2022/05/20 04:56:08;;;;;;;5.80;5.40;;;;;;;18.44;nan;95647.34;4751216;30;20237;-75
2022/05/20 04:58:33;;;;;;;7.90;6.43;;;;;;;18.36;nan;95647.59;4766491;30;20493;-75
2022/05/20 05:00:59;;;;;;;6.53;5.50;;;;;;;18.41;nan;95642.47;4762179;30;20207;-75
2022/05/20 05:03:24;;;;;;;12.00;5.60;;;;;;;18.71;nan;95647.06;4747734;30;20263;-75
2022/05/20 05:05:50;;;;;;;7.30;5.03;;;;;;;19.40;nan;95644.22;4747386;30;20283;-74
2022/05/20 05:08:16;;;;;;;7.47;6.23;;;;;;;19.84;nan;95635.06;4748215;30;20192;-75
2022/05/20 05:10:43;;;;;;;6.40;5.33;;;;;;;19.06;nan;95635.88;4747746;30;20222;-75
2022/05/20 05:13:09;;;;;;;9.80;6.50;;;;;;;19.35;nan;95642.25;4765815;30;20929;-75
2022/05/20 05:15:38;;;;;;;5.60;4.97;;;;;;;19.79;nan;95648.22;4762061;30;20581;-75
2022/05/20 05:18:14;;;;;;;6.33;5.73;;;;;;;20.23;nan;95639.97;4765894;30;20453;-75
2022/05/20 05:20:50;;;;;;;8.33;6.37;;;;;;;20.43;nan;95642.25;4754981;30;20487;-75
2022/05/20 05:23:16;;;;;;;9.03;5.43;;;;;;;20.15;nan;95637.66;4765801;30;20489;-75
2022/05/20 05:25:43;;;;;;;8.30;5.20;;;;;;;20.51;nan;95638.44;4753135;30;20828;-75
2022/05/20 05:28:09;;;;;;;5.17;4.67;;;;;;;20.62;nan;95635.84;4748036;30;20530;-75
2022/05/20 05:30:35;;;;;;;6.43;5.70;;;;;;;20.43;nan;95637.78;4755390;30;20467;-74
2022/05/20 05:33:00;;;;;;;8.10;5.70;;;;;;;21.04;nan;95638.28;4765571;30;20507;-75
2022/05/20 05:35:29;;;;;;;6.77;5.93;;;;;;;21.25;nan;95644.03;4749821;30;20251;-75
2022/05/20 05:37:55;;;;;;;9.00;4.53;;;;;;;21.24;nan;95632.56;4756617;30;20722;-75
2022/05/20 05:40:27;;;;;;;7.57;4.43;;;;;;;21.14;nan;95636.88;4731647;30;20530;-76
2022/05/20 05:42:55;;;;;;;10.03;5.90;;;;;;;21.99;nan;95636.06;4745051;30;20221;-75
2022/05/20 05:45:22;;;;;;;7.90;4.80;;;;;;;22.14;nan;95632.00;4765275;30;20437;-75
2022/05/20 05:47:52;;;;;;;8.33;4.37;;;;;;;22.54;nan;95636.41;4763739;30;20445;-75
2022/05/20 05:50:17;;;;;;;13.30;5.03;;;;;;;22.54;nan;95631.06;4758679;30;21250;-75
2022/05/20 05:52:43;;;;;;;11.43;5.87;;;;;;;22.60;nan;95633.53;4731811;30;20528;-75
2022/05/20 05:55:08;;;;;;;9.80;6.43;;;;;;;22.91;nan;95627.81;4749426;30;20233;-75
2022/05/20 05:57:34;;;;;;;5.97;5.27;;;;;;;22.91;nan;95633.13;4749223;30;20195;-75
2022/05/20 06:00:01;;;;;;;8.40;5.23;;;;;;;21.88;nan;95636.13;4751618;30;20214;-75
2022/05/20 06:02:27;;;;;;;5.73;5.33;;;;;;;22.35;nan;95638.53;4747791;30;20249;-76
2022/05/20 06:04:52;;;;;;;6.47;4.97;;;;;;;21.47;nan;95630.06;4754800;30;20448;-75
2022/05/20 06:07:18;;;;;;;9.87;5.33;;;;;;;22.25;nan;95636.47;4762813;30;20199;-75
2022/05/20 06:09:45;;;;;;;4.77;4.27;;;;;;;21.57;nan;95639.06;4747547;30;20214;-75
2022/05/20 06:12:11;;;;;;;6.77;4.80;;;;;;;22.27;nan;95631.75;4747486;30;20547;-75
2022/05/20 06:14:37;;;;;;;4.70;4.20;;;;;;;22.72;nan;95633.44;4748477;30;20429;-75
2022/05/20 06:17:04;;;;;;;6.30;5.80;;;;;;;22.98;nan;95628.44;4744547;30;20450;-75
2022/05/20 06:19:29;;;;;;;6.67;4.97;;;;;;;23.29;nan;95626.94;4749056;30;20469;-75
2022/05/20 06:21:55;;;;;;;6.60;4.67;;;;;;;23.54;nan;95631.78;4751654;30;20478;-75
2022/05/20 06:24:20;;;;;;;4.60;4.20;;;;;;;23.88;nan;95623.56;4763867;30;20211;-75
2022/05/20 06:26:46;;;;;;;6.47;5.57;;;;;;;23.71;nan;95618.31;4747898;30;20218;-75
2022/05/20 06:29:12;;;;;;;6.53;4.70;;;;;;;23.85;nan;95625.94;4756928;30;20321;-75
2022/05/20 06:31:37;;;;;;;7.87;5.90;;;;;;;23.06;nan;95622.69;4747113;30;20465;-75
2022/05/20 06:34:03;;;;;;;6.07;5.20;;;;;;;22.03;nan;95623.06;4754480;30;20195;-75
2022/05/20 06:41:58;;;;;;;9.10;5.70;;;;;;;23.88;nan;95615.53;4756638;30;20465;-75
2022/05/20 06:44:24;;;;;;;11.43;6.97;;;;;;;24.32;nan;95620.72;4745329;30;20874;-75
2022/05/20 06:46:50;;;;;;;8.80;6.13;;;;;;;23.51;nan;95618.91;4750141;30;20513;-75
2022/05/20 06:49:15;;;;;;;11.40;5.97;;;;;;;22.93;nan;95612.34;4759031;30;20861;-76
2022/05/20 06:51:41;;;;;;;18.90;6.37;;;;;;;24.06;nan;95614.34;4763571;30;20504;-75
2022/05/20 06:54:09;;;;;;;11.23;6.50;;;;;;;24.34;nan;95620.47;4764438;30;20195;-75
2022/05/20 06:56:36;;;;;;;7.80;5.50;;;;;;;24.38;nan;95623.41;4747593;30;20332;-75
2022/05/20 06:59:03;;;;;;;9.10;5.90;;;;;;;24.16;nan;95610.94;4731672;30;20442;-75
2022/05/20 07:01:30;;;;;;;12.93;7.20;;;;;;;25.18;nan;95610.72;4764398;30;20446;-75
2022/05/20 07:03:55;;;;;;;7.00;6.40;;;;;;;25.18;nan;95615.28;4747801;30;20433;-75
2022/05/20 07:06:21;;;;;;;8.20;7.20;;;;;;;25.45;nan;95615.94;4764153;30;20456;-76
2022/05/20 07:08:50;;;;;;;13.00;8.63;;;;;;;25.27;nan;95601.16;4755531;30;20203;-75
2022/05/20 07:11:18;;;;;;;7.53;6.70;;;;;;;25.84;nan;95612.00;4764163;30;20834;-76
2022/05/20 07:13:45;;;;;;;9.00;6.63;;;;;;;25.73;nan;95611.16;4730124;30;20439;-76
2022/05/20 07:16:10;;;;;;;11.20;7.27;;;;;;;25.34;nan;95614.28;4731945;30;20490;-75
2022/05/20 07:18:36;;;;;;;6.60;5.90;;;;;;;25.01;nan;95608.25;4749772;30;20476;-75
2022/05/20 07:21:03;;;;;;;7.30;6.70;;;;;;;24.99;nan;95606.91;4744882;30;20200;-75
2022/05/20 07:23:31;;;;;;;9.80;6.43;;;;;;;24.72;nan;95608.66;4746305;30;20188;-75
2022/05/20 07:25:56;;;;;;;6.57;5.97;;;;;;;24.42;nan;95613.81;4754532;30;20500;-75
2022/05/20 07:28:22;;;;;;;10.37;5.73;;;;;;;25.76;nan;95610.59;4757886;30;20538;-75
2022/05/20 07:30:47;;;;;;;7.13;5.80;;;;;;;25.38;nan;95604.63;4747686;30;20215;-75
2022/05/20 07:33:13;;;;;;;6.70;4.77;;;;;;;25.01;nan;95610.94;4748127;30;20195;-76
2022/05/20 07:35:39;;;;;;;7.50;4.70;;;;;;;25.30;nan;95608.66;4763419;30;20287;-76
2022/05/20 07:38:06;;;;;;;8.13;5.23;;;;;;;26.50;nan;95603.09;4760105;30;20192;-76
2022/05/20 07:40:32;;;;;;;4.60;3.63;;;;;;;26.47;nan;95603.66;4763327;30;20453;-75
2022/05/20 07:42:57;;;;;;;6.80;4.20;;;;;;;26.76;nan;95606.56;4759382;30;20445;-75
2022/05/20 07:45:23;;;;;;;5.63;4.63;;;;;;;25.47;nan;95603.06;4757526;30;20332;-75
2022/05/20 07:47:49;;;;;;;10.47;4.90;;;;;;;25.16;nan;95602.16;4762100;30;20199;-75
2022/05/20 07:50:15;;;;;;;8.77;4.23;;;;;;;25.08;nan;95603.47;4763212;30;20481;-76
2022/05/20 07:55:34;;;;;;;4.70;4.10;;;;;;;25.81;nan;95594.53;4763516;30;20476;-75
2022/05/20 07:58:02;;;;;;;13.73;4.83;;;;;;;26.49;nan;95593.44;4749347;30;20430;-76
2022/05/20 08:00:28;;;;;;;4.90;3.80;;;;;;;26.21;nan;95587.56;4746159;30;20493;-75
2022/05/20 08:02:57;;;;;;;4.10;3.80;;;;;;;25.80;nan;95590.25;4756065;30;20453;-75
2022/05/20 08:05:23;;;;;;;5.23;3.93;;;;;;;25.90;nan;95586.78;4761843;30;20507;-75
2022/05/20 08:07:50;;;;;;;3.63;3.30;;;;;;;26.68;nan;95591.03;4760806;30;20453;-76
2022/05/20 08:10:21;;;;;;;14.33;3.90;;;;;;;25.44;nan;95586.69;4760789;30;20446;-75
2022/05/20 08:12:48;;;;;;;10.50;3.83;;;;;;;25.54;nan;95588.63;4754476;30;20441;-75
2022/05/20 08:15:15;;;;;;;7.63;3.53;;;;;;;26.12;nan;95583.81;4747246;30;20489;-75
2022/05/20 08:17:41;;;;;;;3.97;2.90;;;;;;;25.94;nan;95581.72;4763390;30;20508;-75
2022/05/20 08:20:16;;;;;;;6.70;2.87;;;;;;;26.12;nan;95583.81;4753856;30;20462;-75
2022/05/20 08:22:43;;;;;;;4.57;2.67;;;;;;;27.62;nan;95574.19;4759481;30;20488;-76
2022/05/20 08:25:08;;;;;;;3.10;2.90;;;;;;;27.12;nan;95570.69;4752190;30;20458;-75
2022/05/20 08:27:34;;;;;;;3.00;2.70;;;;;;;26.38;nan;95581.91;4747055;30;20441;-75
2022/05/20 08:30:12;;;;;;;9.70;3.33;;;;;;;26.73;nan;95569.53;4761314;30;20252;-75
2022/05/20 08:32:38;;;;;;;4.33;2.70;;;;;;;26.73;nan;95572.22;4745750;30;20283;-76
2022/05/20 08:35:04;;;;;;;3.00;2.43;;;;;;;28.14;nan;95574.63;4745369;30;20524;-75
2022/05/20 08:37:30;;;;;;;3.37;3.07;;;;;;;27.56;nan;95570.72;4745074;30;20197;-76
2022/05/20 08:39:56;;;;;;;5.90;3.30;;;;;;;28.74;nan;95566.22;4758908;30;20202;-76
2022/05/20 08:42:30;;;;;;;4.90;2.90;;;;;;;28.46;nan;95555.22;4737705;30;20434;-76
2022/05/20 08:44:57;;;;;;;4.00;2.43;;;;;;;27.69;nan;95563.13;4757300;30;20199;-75
2022/05/20 08:47:24;;;;;;;6.60;2.77;;;;;;;27.80;nan;95549.31;4765975;30;20472;-76
2022/05/20 08:49:57;;;;;;;3.47;2.17;;;;;;;27.44;nan;95551.47;4765059;30;20488;-77
2022/05/20 08:52:23;;;;;;;1.63;1.53;;;;;;;27.39;nan;95552.28;4748582;30;20512;-75
2022/05/20 08:54:49;;;;;;;2.90;2.00;;;;;;;27.46;nan;95546.59;4748214;30;20439;-75
2022/05/20 08:57:28;;;;;;;1.80;1.70;;;;;;;28.26;nan;95545.44;4754096;30;20440;-76
2022/05/20 08:59:54;;;;;;;2.37;1.90;;;;;;;29.00;nan;95543.28;4753703;30;20683;-75
2022/05/20 09:02:21;;;;;;;5.50;1.60;;;;;;;28.20;nan;95544.69;4746949;30;20425;-75
2022/05/20 09:04:47;;;;;;;3.03;2.17;;;;;;;28.05;nan;95534.06;4748025;30;20594;-75
2022/05/20 09:07:15;;;;;;;3.17;1.87;;;;;;;27.25;nan;95532.50;4759806;30;20425;-75
2022/05/20 09:09:59;;;;;;;2.80;1.70;;;;;;;27.70;nan;95524.38;4766058;30;20522;-76
2022/05/20 09:12:36;;;;;;;4.07;1.90;;;;;;;29.62;nan;95520.88;4755063;30;20447;-76
2022/05/20 09:17:49;;;;;;;2.73;2.30;;;;;;;29.72;nan;95515.28;4747826;30;20401;-76
2022/05/20 09:20:18;;;;;;;2.83;1.60;;;;;;;29.05;nan;95510.06;4751926;30;20433;-75
2022/05/20 09:22:58;;;;;;;4.97;1.90;;;;;;;29.70;nan;95512.09;4748186;30;20501;-75
2022/05/20 09:25:30;;;;;;;3.70;2.10;;;;;;;29.03;nan;95504.16;4755680;30;20868;-75
2022/05/20 09:28:27;;;;;;;4.40;2.07;;;;;;;29.86;nan;95499.19;4765713;30;20406;-76
2022/05/20 09:31:01;;;;;;;3.30;1.80;;;;;;;29.63;nan;95497.38;4753899;30;20456;-75
2022/05/20 09:33:30;;;;;;;1.97;1.87;;;;;;;30.07;nan;95498.81;4760421;30;20449;-75
2022/05/20 09:36:01;;;;;;;3.20;2.90;;;;;;;30.45;nan;95491.41;4765246;30;20501;-76
2022/05/20 09:38:41;;;;;;;2.20;1.87;;;;;;;31.63;nan;95485.38;4765222;30;20421;-75
2022/05/20 09:41:13;;;;;;;2.73;1.87;;;;;;;32.06;nan;95479.44;4765368;30;20537;-76
2022/05/20 09:43:42;;;;;;;2.63;1.87;;;;;;;32.00;nan;95478.72;4759690;30;20445;-75
2022/05/20 09:46:27;;;;;;;1.23;1.07;;;;;;;31.84;nan;95472.13;4760425;30;20533;-76
2022/05/20 09:49:03;;;;;;;1.10;1.10;;;;;;;32.40;nan;95472.56;4731671;30;20438;-76
2022/05/20 09:51:41;;;;;;;18.43;2.80;;;;;;;31.28;nan;95471.53;4745803;30;20505;-76
2022/05/20 09:54:13;;;;;;;43.90;6.13;;;;;;;30.81;nan;95471.75;4747434;30;20843;-75
2022/05/20 09:57:06;;;;;;;59.43;7.90;;;;;;;30.62;nan;95471.88;4762893;30;20499;-76
2022/05/20 09:59:37;;;;;;;9.77;2.10;;;;;;;32.43;nan;95466.53;4758844;30;20470;-75
2022/05/20 10:02:30;;;;;;;7.00;2.20;;;;;;;33.04;nan;95464.75;4762063;30;20450;-75
2022/05/20 10:05:03;;;;;;;3.00;1.70;;;;;;;32.44;nan;95468.94;4754134;30;20428;-75
2022/05/20 10:07:51;;;;;;;2.10;1.67;;;;;;;32.83;nan;95461.06;4731282;30;20429;-75
2022/05/20 10:10:32;;;;;;;2.10;1.57;;;;;;;32.98;nan;95459.81;4760626;30;20988;-75
2022/05/20 10:12:59;;;;;;;1.90;1.63;;;;;;;33.15;nan;95454.44;4757792;30;20849;-75
2022/05/20 10:15:34;;;;;;;1.70;1.60;;;;;;;33.15;nan;95445.50;4730896;30;21115;-75
2022/05/20 10:18:14;;;;;;;1.97;1.87;;;;;;;32.97;nan;95450.88;4758822;30;20501;-75
2022/05/20 10:20:42;;;;;;;4.13;1.93;;;;;;;33.64;nan;95446.91;4733716;30;20453;-75
2022/05/20 10:23:48;;;;;;;3.10;1.80;;;;;;;33.42;nan;95447.06;4745220;30;20523;-75
2022/05/20 10:26:39;;;;;;;4.50;2.70;;;;;;;33.83;nan;95443.84;4743040;30;20482;-75
2022/05/20 10:34:56;;;;;;;2.67;1.60;;;;;;;33.03;nan;95421.66;4745969;30;20526;-76
2022/05/20 10:37:37;;;;;;;2.70;1.43;;;;;;;32.83;nan;95421.19;4746373;30;20449;-76
2022/05/20 10:40:40;;;;;;;2.43;1.60;;;;;;;33.22;nan;95422.19;4749783;30;20450;-75
2022/05/20 10:43:27;;;;;;;4.23;1.90;;;;;;;33.08;nan;95414.16;4746454;30;20420;-75
2022/05/20 10:49:22;;;;;;;5.57;2.00;;;;;;;31.84;nan;95412.56;4763073;30;20423;-75
2022/05/20 10:52:07;;;;;;;5.43;2.13;;;;;;;33.03;nan;95408.91;4759969;30;20584;-75
2022/05/20 10:54:44;;;;;;;4.47;2.20;;;;;;;33.25;nan;95402.53;4747885;30;20943;-75
2022/05/20 10:57:35;;;;;;;1.93;1.73;;;;;;;33.42;nan;95400.94;4730485;30;20838;-75
2022/05/20 11:00:08;;;;;;;2.10;1.40;;;;;;;34.01;nan;95403.81;4746122;30;21030;-75
2022/05/20 11:02:55;;;;;;;1.70;1.27;;;;;;;33.98;nan;95400.97;4745318;30;20441;-76
2022/05/20 11:05:23;;;;;;;4.47;1.20;;;;;;;33.41;nan;95396.63;4747888;30;20457;-75
2022/05/20 11:07:54;;;;;;;1.90;1.30;;;;;;;33.93;nan;95391.06;4730582;30;20464;-75
2022/05/20 11:10:43;;;;;;;2.13;1.10;;;;;;;33.79;nan;95387.78;4741914;30;20512;-76
2022/05/20 11:13:35;;;;;;;2.50;1.30;;;;;;;32.58;nan;95378.59;4746920;30;20541;-76
2022/05/20 11:16:32;;;;;;;1.83;1.30;;;;;;;32.32;nan;95371.16;4742140;30;20485;-75
2022/05/20 11:19:03;;;;;;;7.57;1.57;;;;;;;32.06;nan;95377.31;4746092;30;20452;-75
2022/05/20 11:21:47;;;;;;;5.23;1.97;;;;;;;31.79;nan;95372.06;4746175;30;20521;-75
2022/05/20 11:24:39;;;;;;;7.07;1.60;;;;;;;32.46;nan;95371.84;4732236;30;20449;-75
2022/05/20 11:27:20;;;;;;;2.33;1.40;;;;;;;31.42;nan;95369.47;4746085;30;20466;-75
2022/05/20 11:30:02;;;;;;;1.33;1.20;;;;;;;32.67;nan;95363.13;4746429;30;20481;-76
2022/05/20 11:32:46;;;;;;;6.73;1.60;;;;;;;34.08;nan;95362.56;4749292;30;20472;-75
2022/05/20 11:35:48;;;;;;;3.53;1.80;;;;;;;34.54;nan;95357.38;4748851;30;21302;-75
2022/05/20 11:38:40;;;;;;;1.80;1.70;;;;;;;34.52;nan;95351.47;4745871;30;20459;-75
2022/05/20 11:41:35;;;;;;;1.80;1.70;;;;;;;34.92;nan;95356.47;4756202;30;20449;-76
2022/05/20 11:44:06;;;;;;;1.80;1.30;;;;;;;34.33;nan;95352.69;4761960;30;20452;-76
2022/05/20 11:47:08;;;;;;;2.40;1.87;;;;;;;34.17;nan;95351.69;4759454;30;20460;-75
2022/05/20 11:49:57;;;;;;;2.30;1.70;;;;;;;34.49;nan;95342.06;4752474;30;20792;-76
2022/05/20 11:52:22;;;;;;;1.60;1.30;;;;;;;33.87;nan;95343.50;4745395;30;21020;-75
2022/05/20 11:55:01;;;;;;;2.87;1.70;;;;;;;34.02;nan;95337.50;4746845;30;20547;-76
2022/05/20 11:57:32;;;;;;;5.23;1.93;;;;;;;33.36;nan;95332.44;4748944;30;20698;-75
2022/05/20 12:00:16;;;;;;;4.70;2.00;;;;;;;34.10;nan;95335.06;4772271;30;20442;-76
2022/05/20 12:02:58;;;;;;;4.50;1.57;;;;;;;34.40;nan;95333.94;4759145;30;20438;-76
2022/05/20 12:05:27;;;;;;;2.33;1.30;;;;;;;34.53;nan;95325.84;4745684;30;20438;-76
2022/05/20 12:07:53;;;;;;;2.30;2.10;;;;;;;35.06;nan;95329.78;4745578;30;20453;-75
2022/05/20 12:10:30;;;;;;;3.57;1.40;;;;;;;36.05;nan;95306.28;4759836;30;20447;-76
2022/05/20 12:13:08;;;;;;;2.40;1.30;;;;;;;35.65;nan;95308.81;4745702;30;20222;-75
2022/05/20 12:15:41;;;;;;;2.70;1.40;;;;;;;35.12;nan;95305.88;4751541;30;20481;-76
2022/05/20 12:24:12;;;;;;;4.17;1.20;;;;;;;36.97;nan;95305.88;4761406;30;20584;-75
2022/05/20 12:24:21;;;;;;;2.93;1.13;;;;;;;33.70;nan;95303.63;4752798;30;20452;-75
2022/05/20 12:26:52;;;;;;;5.20;2.07;;;;;;;35.14;nan;95298.97;4753527;30;20453;-75
2022/05/20 12:29:37;;;;;;;1.43;1.20;;;;;;;35.86;nan;95298.66;4748995;30;20430;-76
2022/05/20 12:32:15;;;;;;;2.00;1.80;;;;;;;35.31;nan;95298.00;4748770;30;20477;-75
2022/05/20 12:34:42;;;;;;;4.03;1.47;;;;;;;35.90;nan;95294.13;4750095;30;20455;-75
2022/05/20 12:37:28;;;;;;;2.33;1.20;;;;;;;36.41;nan;95291.03;4762436;30;20433;-75
2022/05/20 12:39:53;;;;;;;2.40;1.30;;;;;;;37.05;nan;95289.34;4765708;30;20931;-75
2022/05/20 12:42:23;;;;;;;1.47;1.37;;;;;;;37.41;nan;95282.13;4753604;30;20434;-75
2022/05/20 12:44:48;;;;;;;1.17;1.10;;;;;;;37.48;nan;95282.28;4754348;30;20283;-76
2022/05/20 12:47:34;;;;;;;1.37;1.27;;;;;;;38.22;nan;95281.72;4748537;30;20445;-75